Time;durP1;ratioP1;P1;durP2;ratioP2;P2;SDS_P1;SDS_P2;PMS_P1;PMS_P2;Temp;Humidity;BMP_temperature;BMP_pressure;BME280_temperature;BME280_humidity;BME280_pressure;Samples;Min_cycle;Max_cycle;Signal;HPM_P1;HPM_P2
2023/08/03 00:00:33;;;;;;;4.70;4.20;;;;;;;20.61;100.00;99402.05;84389;284;137059;-61
2023/08/03 00:02:35;;;;;;;4.30;4.00;;;;;;;20.65;100.00;99406.11;84201;284;25222;-62
2023/08/03 00:04:37;;;;;;;5.00;4.50;;;;;;;20.66;100.00;99408.65;84309;285;138607;-74
2023/08/03 00:06:39;;;;;;;4.70;4.30;;;;;;;20.78;100.00;99408.97;84211;284;22897;-63
2023/08/03 00:08:41;;;;;;;3.60;3.30;;;;;;;20.91;100.00;99410.42;84238;284;138309;-64
2023/08/03 00:10:43;;;;;;;4.50;4.00;;;;;;;21.07;100.00;99411.84;84232;285;22615;-65
2023/08/03 00:12:46;;;;;;;4.30;3.90;;;;;;;21.17;100.00;99413.73;84129;285;137159;-63
2023/08/03 00:14:52;;;;;;;6.50;5.90;;;;;;;21.27;100.00;99412.58;84145;284;22543;-66
2023/08/03 00:16:53;;;;;;;4.90;4.40;;;;;;;21.33;100.00;99416.61;84129;284;136994;-65
2023/08/03 00:18:56;;;;;;;4.40;4.10;;;;;;;21.28;100.00;99412.47;84113;284;22580;-66
2023/08/03 00:20:58;;;;;;;4.50;4.30;;;;;;;21.20;100.00;99415.44;84045;284;136935;-64
2023/08/03 00:23:00;;;;;;;5.00;4.70;;;;;;;21.11;100.00;99415.49;84211;284;22636;-64
2023/08/03 00:25:03;;;;;;;4.80;4.50;;;;;;;21.03;100.00;99412.02;84091;284;136982;-60
2023/08/03 00:27:05;;;;;;;5.40;5.00;;;;;;;20.93;100.00;99411.60;84249;272;25320;-62
2023/08/03 00:29:07;;;;;;;5.80;5.40;;;;;;;20.78;100.00;99411.46;83897;286;137038;-63
2023/08/03 00:31:09;;;;;;;7.10;5.20;;;;;;;20.71;100.00;99406.63;84055;285;24100;-60
2023/08/03 00:33:11;;;;;;;5.20;4.80;;;;;;;20.64;100.00;99409.73;83997;284;138211;-63
2023/08/03 00:35:13;;;;;;;6.20;5.70;;;;;;;20.56;100.00;99409.47;84032;285;24314;-63
2023/08/03 00:37:15;;;;;;;4.80;4.40;;;;;;;20.51;100.00;99404.52;83915;284;137500;-62
2023/08/03 00:39:18;;;;;;;4.30;3.90;;;;;;;20.51;100.00;99406.89;84122;282;25144;-62
2023/08/03 00:41:19;;;;;;;5.80;4.70;;;;;;;20.61;100.00;99406.16;84156;282;137074;-65
2023/08/03 00:43:21;;;;;;;8.60;6.40;;;;;;;20.68;100.00;99407.84;84038;283;25002;-62
2023/08/03 00:45:23;;;;;;;5.80;4.90;;;;;;;20.65;100.00;99411.68;83921;283;137104;-60
2023/08/03 00:47:25;;;;;;;5.80;5.20;;;;;;;20.57;100.00;99409.52;84371;282;22545;-62
2023/08/03 00:49:28;;;;;;;5.90;5.40;;;;;;;20.51;100.00;99415.50;84258;282;137254;-65
2023/08/03 00:51:30;;;;;;;6.00;5.50;;;;;;;20.51;100.00;99416.53;84292;282;22566;-62
2023/08/03 00:53:32;;;;;;;5.20;4.80;;;;;;;20.48;100.00;99416.48;84081;282;138515;-62
2023/08/03 00:55:34;;;;;;;5.60;4.80;;;;;;;20.40;100.00;99412.52;84248;282;22566;-62
2023/08/03 00:57:36;;;;;;;5.30;5.00;;;;;;;20.38;100.00;99417.88;83923;284;136551;-64
2023/08/03 00:59:40;;;;;;;5.50;5.00;;;;;;;20.38;100.00;99417.38;84229;282;24099;-63
2023/08/03 01:01:42;;;;;;;5.60;5.10;;;;;;;20.38;100.00;99417.44;84162;283;136920;-68
2023/08/03 01:03:45;;;;;;;5.60;5.20;;;;;;;20.36;100.00;99419.56;84267;283;25265;-62
2023/08/03 01:05:47;;;;;;;6.80;6.10;;;;;;;20.36;100.00;99421.14;84170;283;136887;-63
2023/08/03 01:07:50;;;;;;;6.60;6.10;;;;;;;20.34;100.00;99422.21;84274;282;22564;-60
2023/08/03 01:09:51;;;;;;;7.00;4.70;;;;;;;20.34;100.00;99428.50;84277;281;137306;-60
2023/08/03 01:11:54;;;;;;;6.30;5.80;;;;;;;20.33;100.00;99427.58;84191;271;26202;-61
2023/08/03 01:13:58;;;;;;;6.10;5.60;;;;;;;20.29;100.00;99428.30;84343;282;138380;-61
2023/08/03 01:16:00;;;;;;;6.80;6.30;;;;;;;20.29;100.00;99429.33;84415;283;22604;-61
2023/08/03 01:18:02;;;;;;;6.30;5.90;;;;;;;20.28;100.00;99428.23;84181;282;136943;-62
2023/08/03 01:20:06;;;;;;;6.20;5.70;;;;;;;20.28;100.00;99425.37;84301;282;138470;-68
2023/08/03 01:22:12;;;;;;;7.00;6.00;;;;;;;20.29;100.00;99425.52;84445;281;22534;-62
2023/08/03 01:24:14;;;;;;;6.90;6.40;;;;;;;20.29;100.00;99429.86;84359;282;137417;-63
2023/08/03 01:26:16;;;;;;;6.60;6.10;;;;;;;20.29;100.00;99429.11;84327;282;22552;-61
2023/08/03 01:28:18;;;;;;;6.80;6.20;;;;;;;20.32;100.00;99422.49;84280;282;137376;-61
2023/08/03 01:30:22;;;;;;;6.20;5.80;;;;;;;20.31;100.00;99425.37;84275;283;22740;-62
2023/08/03 01:32:24;;;;;;;5.90;5.50;;;;;;;20.31;100.00;99429.85;84184;282;137457;-64
2023/08/03 01:34:27;;;;;;;7.00;6.50;;;;;;;20.35;100.00;99433.36;84351;282;22543;-61
2023/08/03 01:36:29;;;;;;;6.60;6.10;;;;;;;20.33;100.00;99421.02;84349;282;136934;-62
2023/08/03 01:38:31;;;;;;;6.30;5.80;;;;;;;20.43;100.00;99431.50;84245;284;24102;-59
2023/08/03 01:40:33;;;;;;;7.50;7.00;;;;;;;20.44;100.00;99435.77;84166;282;138600;-62
2023/08/03 01:42:34;;;;;;;6.10;5.70;;;;;;;20.49;100.00;99438.73;84213;284;22548;-63
2023/08/03 01:44:37;;;;;;;6.00;5.50;;;;;;;20.52;100.00;99438.45;84222;283;138425;-63
2023/08/03 01:46:39;;;;;;;6.70;6.20;;;;;;;20.47;100.00;99441.84;84442;282;24191;-64
2023/08/03 01:48:42;;;;;;;6.90;6.40;;;;;;;20.45;100.00;99447.20;84237;281;137108;-62
2023/08/03 01:50:43;;;;;;;6.40;5.90;;;;;;;20.42;100.00;99451.31;84191;282;24306;-61
2023/08/03 01:52:48;;;;;;;6.70;6.20;;;;;;;20.44;100.00;99455.91;84220;283;138237;-63
2023/08/03 01:54:50;;;;;;;6.60;6.00;;;;;;;20.45;100.00;99456.17;84320;282;25039;-64
2023/08/03 01:56:53;;;;;;;6.90;6.40;;;;;;;20.42;100.00;99451.38;84227;282;136932;-60
2023/08/03 01:58:55;;;;;;;5.60;5.30;;;;;;;20.38;100.00;99451.05;84337;282;25143;-57
2023/08/03 02:00:57;;;;;;;5.90;5.40;;;;;;;20.39;100.00;99453.88;83991;284;136628;-62
2023/08/03 02:02:58;;;;;;;6.30;5.80;;;;;;;20.43;100.00;99452.39;84156;284;22545;-60
2023/08/03 02:05:05;;;;;;;6.50;6.10;;;;;;;20.53;100.00;99457.78;84208;266;138274;-60
2023/08/03 02:07:10;;;;;;;6.30;5.90;;;;;;;20.56;100.00;99456.85;84404;282;22547;-61
2023/08/03 02:09:11;;;;;;;6.00;5.60;;;;;;;20.55;100.00;99462.86;84191;282;137368;-63
2023/08/03 02:11:14;;;;;;;5.80;5.40;;;;;;;20.54;100.00;99461.67;84268;281;25390;-63
2023/08/03 02:13:16;;;;;;;5.50;5.10;;;;;;;20.53;100.00;99465.36;84190;282;136930;-59
2023/08/03 02:15:18;;;;;;;6.10;5.60;;;;;;;20.55;100.00;99470.38;84297;283;24195;-62
2023/08/03 02:17:20;;;;;;;6.20;5.70;;;;;;;20.56;100.00;99474.61;84106;283;136649;-59
2023/08/03 02:19:22;;;;;;;6.20;4.80;;;;;;;20.53;100.00;99477.80;84086;285;24139;-63
2023/08/03 02:21:24;;;;;;;5.80;5.20;;;;;;;20.53;100.00;99478.68;84241;282;137192;-69
2023/08/03 02:23:28;;;;;;;5.40;5.10;;;;;;;20.53;100.00;99475.54;84395;282;22573;-62
2023/08/03 02:25:30;;;;;;;6.00;5.60;;;;;;;20.53;100.00;99472.84;84181;283;136994;-61
2023/08/03 02:27:32;;;;;;;7.10;5.60;;;;;;;20.59;100.00;99472.92;84132;273;24254;-65
2023/08/03 02:29:33;;;;;;;5.70;5.20;;;;;;;20.61;100.00;99477.00;84183;282;137129;-62
2023/08/03 02:31:36;;;;;;;6.00;5.30;;;;;;;20.65;100.00;99479.70;84304;282;22680;-62
2023/08/03 02:33:38;;;;;;;6.20;5.80;;;;;;;20.66;100.00;99482.66;84208;283;136742;-63
2023/08/03 02:35:40;;;;;;;6.10;5.60;;;;;;;20.67;100.00;99487.00;84372;282;23136;-62
2023/08/03 02:37:42;;;;;;;6.00;5.70;;;;;;;20.71;100.00;99490.08;83935;284;136531;-62
2023/08/03 02:39:47;;;;;;;6.20;5.70;;;;;;;20.72;100.00;99490.45;84162;282;22561;-61
2023/08/03 02:41:52;;;;;;;5.20;4.90;;;;;;;20.71;100.00;99492.13;84089;283;137033;-62
2023/08/03 02:43:56;;;;;;;5.30;4.80;;;;;;;20.65;100.00;99496.54;84387;281;22649;-64
2023/08/03 02:45:59;;;;;;;5.90;5.50;;;;;;;20.60;100.00;99500.65;84261;282;138161;-63
2023/08/03 02:48:01;;;;;;;5.40;5.00;;;;;;;20.59;100.00;99502.60;84334;282;22585;-59
2023/08/03 02:50:04;;;;;;;5.50;5.00;;;;;;;20.60;100.00;99502.17;84292;282;22654;-62
2023/08/03 02:52:06;;;;;;;5.60;5.20;;;;;;;20.57;100.00;99513.90;84272;283;136991;-61
2023/08/03 02:54:15;;;;;;;5.00;4.70;;;;;;;20.53;100.00;99518.69;84175;270;22662;-62
2023/08/03 02:56:18;;;;;;;4.90;4.70;;;;;;;20.51;100.00;99515.55;84178;282;138608;-62
2023/08/03 02:58:21;;;;;;;5.40;5.10;;;;;;;20.50;100.00;99519.35;84253;282;22652;-64
2023/08/03 03:00:23;;;;;;;4.40;4.20;;;;;;;20.52;100.00;99522.75;84172;282;137121;-63
2023/08/03 03:02:26;;;;;;;5.60;5.20;;;;;;;20.56;100.00;99526.10;84259;278;23706;-60
2023/08/03 03:04:29;;;;;;;5.60;5.20;;;;;;;20.61;100.00;99525.78;84080;284;137271;-61
2023/08/03 03:06:31;;;;;;;5.20;4.80;;;;;;;20.64;100.00;99530.01;84248;283;24130;-62
2023/08/03 03:08:33;;;;;;;4.70;4.40;;;;;;;20.64;100.00;99531.42;84102;271;137128;-61
2023/08/03 03:10:35;;;;;;;4.50;4.20;;;;;;;20.62;100.00;99534.99;84240;282;25219;-64
2023/08/03 03:12:37;;;;;;;5.10;4.80;;;;;;;20.63;100.00;99533.31;84172;281;138569;-77
2023/08/03 03:14:40;;;;;;;5.10;4.80;;;;;;;20.57;100.00;99535.79;84179;283;22580;-63
2023/08/03 03:16:42;;;;;;;4.10;3.80;;;;;;;20.51;100.00;99537.32;84195;282;138462;-62
2023/08/03 03:18:44;;;;;;;5.50;5.20;;;;;;;20.47;100.00;99537.48;84263;284;23901;-62
2023/08/03 03:20:46;;;;;;;4.80;4.50;;;;;;;20.47;100.00;99535.16;84175;283;136806;-64
2023/08/03 03:22:48;;;;;;;4.70;3.90;;;;;;;20.48;100.00;99537.81;84328;282;25135;-66
2023/08/03 03:24:50;;;;;;;12.70;4.10;;;;;;;20.49;100.00;99540.46;84314;281;138194;-66
2023/08/03 03:26:52;;;;;;;3.50;3.30;;;;;;;20.51;100.00;99535.31;84386;281;24100;-65
2023/08/03 03:28:54;;;;;;;3.30;3.20;;;;;;;20.45;100.00;99534.61;84156;283;138448;-63
2023/08/03 03:30:58;;;;;;;;;;;;;;;20.46;100.00;99537.06;84227;281;22707;-63
2023/08/03 03:33:01;;;;;;;3.90;3.50;;;;;;;20.41;100.00;99527.27;84175;281;123491;-58
2023/08/03 03:35:04;;;;;;;3.50;3.30;;;;;;;20.49;100.00;99534.98;84324;282;22664;-60
2023/08/03 03:37:06;;;;;;;3.30;3.10;;;;;;;20.52;100.00;99534.55;84219;283;137175;-66
2023/08/03 03:39:08;;;;;;;3.60;3.50;;;;;;;20.56;100.00;99535.89;84319;282;22575;-62
2023/08/03 03:41:10;;;;;;;4.00;2.90;;;;;;;20.61;100.00;99539.64;84168;283;136927;-62
2023/08/03 03:43:12;;;;;;;3.10;2.90;;;;;;;20.68;100.00;99543.20;84275;282;22555;-62
2023/08/03 03:45:15;;;;;;;4.50;3.20;;;;;;;20.65;100.00;99548.58;84163;281;137197;-61
2023/08/03 03:47:21;;;;;;;3.30;2.70;;;;;;;20.63;100.00;99546.42;84139;283;22548;-62
2023/08/03 03:49:29;;;;;;;3.40;3.20;;;;;;;20.62;100.00;99548.16;84021;284;137289;-63
2023/08/03 03:51:31;;;;;;;2.70;2.60;;;;;;;20.62;100.00;99553.73;84557;282;24059;-65
2023/08/03 03:53:34;;;;;;;2.50;2.40;;;;;;;20.64;100.00;99557.79;84268;282;137012;-62
2023/08/03 03:55:39;;;;;;;2.30;2.20;;;;;;;20.67;100.00;99556.97;84142;284;22660;-64
2023/08/03 03:57:42;;;;;;;3.20;2.90;;;;;;;20.70;100.00;99547.98;84154;279;138639;-76
2023/08/03 03:59:43;;;;;;;3.30;3.00;;;;;;;20.70;100.00;99547.34;84262;283;22549;-64
2023/08/03 04:01:45;;;;;;;3.50;2.70;;;;;;;20.68;100.00;99548.13;84160;282;139693;-65
2023/08/03 04:03:48;;;;;;;2.50;2.40;;;;;;;20.69;100.00;99551.92;84117;284;22555;-66
2023/08/03 04:05:49;;;;;;;3.40;2.40;;;;;;;20.73;100.00;99553.16;83993;284;137608;-64
2023/08/03 04:07:51;;;;;;;2.60;2.50;;;;;;;20.78;100.00;99556.02;84103;283;22562;-63
2023/08/03 04:09:54;;;;;;;2.50;2.30;;;;;;;20.83;100.00;99556.23;84147;282;136953;-62
2023/08/03 04:11:56;;;;;;;2.80;2.70;;;;;;;20.84;100.00;99557.20;84188;282;24122;-65
2023/08/03 04:13:58;;;;;;;2.70;2.50;;;;;;;20.87;100.00;99553.61;84045;284;136692;-62
2023/08/03 04:16:03;;;;;;;3.20;3.00;;;;;;;20.89;100.00;99558.53;84063;285;137146;-64
2023/08/03 04:18:07;;;;;;;2.30;2.20;;;;;;;20.89;100.00;99553.65;84180;284;25182;-63
2023/08/03 04:20:09;;;;;;;2.40;2.00;;;;;;;20.88;100.00;99559.50;84042;283;137221;-61
2023/08/03 04:22:11;;;;;;;1.90;1.80;;;;;;;20.78;100.00;99557.64;84449;282;22543;-63
2023/08/03 04:24:13;;;;;;;2.30;1.80;;;;;;;20.81;100.00;99565.55;84044;282;137204;-64
2023/08/03 04:26:16;;;;;;;1.60;1.50;;;;;;;20.71;100.00;99551.21;84017;282;523653;-64
2023/08/03 04:28:20;;;;;;;;;;;;;;;20.74;100.00;99560.69;84242;282;137471;-69
2023/08/03 04:30:22;;;;;;;2.40;1.40;;;;;;;20.69;100.00;99562.11;84251;282;24115;-63
2023/08/03 04:32:24;;;;;;;1.60;1.40;;;;;;;20.62;100.00;99560.22;84068;282;136975;-76
2023/08/03 04:34:26;;;;;;;1.80;1.40;;;;;;;20.60;100.00;99559.46;84174;282;22901;-62
2023/08/03 04:36:35;;;;;;;1.10;1.00;;;;;;;20.59;100.00;99558.54;85902;283;137107;-63
2023/08/03 04:38:37;;;;;;;1.00;1.00;;;;;;;20.61;100.00;99560.45;84146;284;25151;-61
2023/08/03 04:40:40;;;;;;;1.70;1.60;;;;;;;20.53;100.00;99553.30;84717;283;138503;-61
2023/08/03 04:42:42;;;;;;;1.30;1.30;;;;;;;20.61;100.00;99566.35;84382;282;22675;-61
2023/08/03 04:44:44;;;;;;;3.60;1.70;;;;;;;20.59;100.00;99569.52;84230;282;138401;-64
2023/08/03 04:46:46;;;;;;;1.70;1.60;;;;;;;20.61;100.00;99577.39;84395;283;22673;-60
2023/08/03 04:48:48;;;;;;;2.50;2.40;;;;;;;20.64;100.00;99584.91;84569;282;136925;-65
2023/08/03 04:50:50;;;;;;;2.10;1.90;;;;;;;20.65;100.00;99585.73;84422;283;22960;-58
2023/08/03 04:52:53;;;;;;;2.70;1.90;;;;;;;20.67;100.00;99584.27;84401;282;138194;-63
2023/08/03 04:54:56;;;;;;;1.70;1.60;;;;;;;20.69;100.00;99587.13;84177;282;22695;-69
2023/08/03 04:56:58;;;;;;;1.50;1.50;;;;;;;20.70;100.00;99590.32;84019;283;136514;-63
2023/08/03 04:59:01;;;;;;;2.10;1.80;;;;;;;20.70;100.00;99600.02;84342;282;22744;-67
2023/08/03 05:01:02;;;;;;;2.40;2.20;;;;;;;20.69;100.00;99605.27;84148;283;137303;-62
2023/08/03 05:03:05;;;;;;;2.40;2.20;;;;;;;20.67;100.00;99608.46;84232;284;24116;-67
2023/08/03 05:05:09;;;;;;;3.40;3.20;;;;;;;20.58;100.00;99598.35;84025;283;138635;-65
2023/08/03 05:07:11;;;;;;;1.60;1.50;;;;;;;20.62;100.00;99613.29;84266;283;25367;-66
2023/08/03 05:09:13;;;;;;;1.90;1.80;;;;;;;20.61;100.00;99614.11;84166;282;137126;-62
2023/08/03 05:11:15;;;;;;;1.60;1.50;;;;;;;20.61;100.00;99615.95;84212;282;23781;-60
2023/08/03 05:13:17;;;;;;;6.60;6.00;;;;;;;20.70;100.00;99617.45;84083;283;136685;-63
2023/08/03 05:15:19;;;;;;;3.40;3.20;;;;;;;21.00;100.00;99619.66;84289;282;25239;-73
2023/08/03 05:17:22;;;;;;;4.10;3.60;;;;;;;21.36;100.00;99619.98;84164;282;138381;-62
2023/08/03 05:19:25;;;;;;;2.40;2.30;;;;;;;21.67;100.00;99618.89;84309;282;22675;-63
2023/08/03 05:21:27;;;;;;;2.50;2.00;;;;;;;21.83;100.00;99621.09;84083;282;138450;-63
2023/08/03 05:23:29;;;;;;;1.40;1.20;;;;;;;21.89;100.00;99624.74;84187;282;22546;-63
2023/08/03 05:25:30;;;;;;;2.90;2.70;;;;;;;21.92;100.00;99624.71;84095;282;138543;-64
2023/08/03 05:27:33;;;;;;;2.50;2.30;;;;;;;21.89;100.00;99621.05;84302;282;22555;-62
2023/08/03 05:29:35;;;;;;;5.60;5.00;;;;;;;21.80;100.00;99620.02;84287;282;137181;-64
2023/08/03 05:31:37;;;;;;;3.20;3.00;;;;;;;21.69;100.00;99624.26;84250;282;23594;-64
2023/08/03 05:33:39;;;;;;;2.40;2.30;;;;;;;21.61;100.00;99629.01;83971;283;137086;-64
2023/08/03 05:35:44;;;;;;;1.90;1.80;;;;;;;21.50;100.00;99632.75;84239;282;22550;-64
2023/08/03 05:37:46;;;;;;;1.90;1.80;;;;;;;21.40;100.00;99635.65;84220;282;137233;-64
2023/08/03 05:39:48;;;;;;;2.00;2.00;;;;;;;21.32;100.00;99648.23;84251;282;23404;-65
2023/08/03 05:41:50;;;;;;;2.40;2.30;;;;;;;21.25;100.00;99647.40;84107;282;137710;-63
2023/08/03 05:43:51;;;;;;;1.80;1.50;;;;;;;21.26;100.00;99648.32;84176;282;24031;-70
2023/08/03 05:46:00;;;;;;;2.30;2.20;;;;;;;21.29;100.00;99649.73;84172;283;138323;-64
2023/08/03 05:48:03;;;;;;;1.90;1.80;;;;;;;21.38;100.00;99652.88;84263;282;22810;-66
2023/08/03 05:50:13;;;;;;;3.00;2.80;;;;;;;21.58;100.00;99650.78;84176;282;24037;-67
2023/08/03 05:52:15;;;;;;;4.90;4.60;;;;;;;21.86;100.00;99647.97;84190;282;136954;-64
2023/08/03 05:54:18;;;;;;;5.20;3.00;;;;;;;22.09;100.00;99647.19;84244;282;25371;-63
2023/08/03 05:56:21;;;;;;;4.20;3.90;;;;;;;22.26;100.00;99654.14;84089;282;137430;-64
2023/08/03 05:58:23;;;;;;;1.70;1.60;;;;;;;22.40;100.00;99651.18;84258;282;24160;-63
2023/08/03 06:00:28;;;;;;;4.50;4.20;;;;;;;22.53;100.00;99653.95;84055;282;137082;-69
2023/08/03 06:02:33;;;;;;;4.70;4.40;;;;;;;22.67;100.00;99652.86;84443;282;24355;-59
2023/08/03 06:04:36;;;;;;;4.70;4.30;;;;;;;22.88;100.00;99655.27;84058;282;137150;-67
2023/08/03 06:06:38;;;;;;;2.20;2.10;;;;;;;23.07;100.00;99651.95;84221;282;22561;-62
2023/08/03 06:08:45;;;;;;;2.00;1.90;;;;;;;23.21;100.00;99651.64;84035;282;137869;-64
2023/08/03 06:10:52;;;;;;;2.10;1.90;;;;;;;23.28;100.00;99650.02;84369;282;22563;-65
2023/08/03 06:12:55;;;;;;;3.20;3.00;;;;;;;23.36;100.00;99647.75;84222;282;138250;-63
2023/08/03 06:14:57;;;;;;;2.10;1.90;;;;;;;23.47;100.00;99646.05;84297;282;22565;-61
2023/08/03 06:17:00;;;;;;;2.20;1.80;;;;;;;23.54;100.00;99647.17;84118;282;137096;-63
2023/08/03 06:19:05;;;;;;;2.70;1.60;;;;;;;23.56;100.00;99650.23;84202;283;24115;-67
2023/08/03 06:21:07;;;;;;;3.50;3.30;;;;;;;23.65;100.00;99646.97;84177;282;136317;-63
2023/08/03 06:23:16;;;;;;;4.00;3.10;;;;;;;23.78;100.00;99645.02;84096;282;22653;-63
2023/08/03 06:25:21;;;;;;;1.90;1.80;;;;;;;24.03;100.00;99648.60;84103;282;136671;-71
2023/08/03 06:27:24;;;;;;;2.50;2.20;;;;;;;24.24;100.00;99648.23;84172;282;25177;-66
2023/08/03 06:29:26;;;;;;;3.80;2.80;;;;;;;24.30;100.00;99649.48;84055;282;136513;-64
2023/08/03 06:31:39;;;;;;;2.20;2.10;;;;;;;24.34;100.00;99649.77;84235;282;24194;-61
2023/08/03 06:33:43;;;;;;;2.50;2.40;;;;;;;24.34;100.00;99648.91;84139;282;137549;-63
2023/08/03 06:35:46;;;;;;;2.30;2.10;;;;;;;24.26;100.00;99649.13;84207;283;22816;-63
2023/08/03 06:37:48;;;;;;;2.00;1.60;;;;;;;24.18;100.00;99647.83;84229;282;137747;-68
2023/08/03 06:39:51;;;;;;;3.30;3.10;;;;;;;24.11;100.00;99649.50;84240;282;24101;-64
2023/08/03 06:41:53;;;;;;;2.30;1.50;;;;;;;23.98;100.00;99644.42;84088;270;138015;-64
2023/08/03 06:43:56;;;;;;;3.00;1.70;;;;;;;23.91;100.00;99643.00;84195;282;23721;-71
2023/08/03 06:45:59;;;;;;;2.60;2.10;;;;;;;24.03;100.00;99646.21;84108;282;137203;-62
2023/08/03 06:48:02;;;;;;;2.10;2.00;;;;;;;24.26;100.00;99650.16;84011;282;24271;-59
2023/08/03 06:50:05;;;;;;;3.20;1.60;;;;;;;24.44;100.00;99652.33;84120;282;24150;-63
2023/08/03 06:52:09;;;;;;;2.90;2.80;;;;;;;24.60;99.40;99658.08;84148;282;137050;-65
2023/08/03 06:54:11;;;;;;;2.50;1.70;;;;;;;24.75;97.55;99660.98;84251;282;22564;-66
2023/08/03 06:56:14;;;;;;;2.00;1.90;;;;;;;24.87;96.93;99662.20;84136;283;141797;-63
2023/08/03 06:58:17;;;;;;;3.00;1.80;;;;;;;25.01;95.59;99664.05;84212;282;24215;-68
2023/08/03 07:00:19;;;;;;;1.50;1.20;;;;;;;25.19;95.07;99666.54;84100;282;136354;-66
2023/08/03 07:02:22;;;;;;;2.30;1.40;;;;;;;25.35;92.82;99661.80;84180;282;22548;-67
2023/08/03 07:04:24;;;;;;;1.70;1.10;;;;;;;25.34;93.61;99656.20;84099;282;136236;-68
2023/08/03 07:06:26;;;;;;;1.60;1.60;;;;;;;25.24;93.54;99657.49;84235;282;25237;-64
2023/08/03 07:08:27;;;;;;;2.70;1.30;;;;;;;25.15;93.57;99669.55;84131;282;137108;-65
2023/08/03 07:10:30;;;;;;;2.00;1.90;;;;;;;25.01;95.63;99670.57;84093;284;22887;-74
2023/08/03 07:12:33;;;;;;;1.40;1.40;;;;;;;25.01;95.90;99670.44;84119;282;136524;-71
2023/08/03 07:14:35;;;;;;;1.60;1.50;;;;;;;25.17;95.33;99672.05;84091;282;22542;-70
2023/08/03 07:16:38;;;;;;;1.60;1.60;;;;;;;25.30;94.02;99667.52;84058;282;136126;-64
2023/08/03 07:18:40;;;;;;;1.40;1.40;;;;;;;25.43;92.78;99662.02;84153;282;22559;-64
2023/08/03 07:20:42;;;;;;;1.40;1.30;;;;;;;25.48;92.33;99664.55;84096;282;137051;-65
2023/08/03 07:22:48;;;;;;;1.40;1.30;;;;;;;25.54;92.27;99663.77;84239;282;22555;-63
2023/08/03 07:24:51;;;;;;;1.70;1.50;;;;;;;25.54;91.21;99661.97;84064;283;136352;-66
2023/08/03 07:26:52;;;;;;;2.00;1.50;;;;;;;25.52;90.72;99659.94;84205;282;22637;-68
2023/08/03 07:28:54;;;;;;;2.80;1.40;;;;;;;25.47;91.08;99658.73;84061;282;137147;-62
2023/08/03 07:30:56;;;;;;;1.50;1.40;;;;;;;25.51;92.17;99657.36;84122;282;24175;-65
2023/08/03 07:32:58;;;;;;;1.70;1.60;;;;;;;25.55;91.60;99657.31;84064;282;136448;-66
2023/08/03 07:35:00;;;;;;;1.80;1.70;;;;;;;25.51;92.09;99656.14;84144;282;25219;-69
2023/08/03 07:37:02;;;;;;;2.30;1.40;;;;;;;25.37;93.41;99659.10;84120;283;135903;-66
2023/08/03 07:39:04;;;;;;;4.60;1.60;;;;;;;25.28;93.35;99656.71;84286;282;22554;-64
2023/08/03 07:41:06;;;;;;;1.10;1.10;;;;;;;25.22;93.61;99655.02;84095;282;137448;-65
2023/08/03 07:43:08;;;;;;;1.90;1.80;;;;;;;25.16;93.71;99655.89;84172;282;24104;-68
2023/08/03 07:45:10;;;;;;;2.10;1.80;;;;;;;25.16;93.40;99652.83;84064;282;136313;-60
2023/08/03 07:47:12;;;;;;;1.90;1.00;;;;;;;25.18;93.92;99648.10;84293;282;22571;-60
2023/08/03 07:49:14;;;;;;;1.50;1.40;;;;;;;25.13;92.14;99647.75;84148;282;137739;-63
2023/08/03 07:51:17;;;;;;;1.60;1.50;;;;;;;25.12;92.34;99663.55;84112;282;23981;-63
2023/08/03 07:53:22;;;;;;;1.50;1.20;;;;;;;25.06;91.66;99662.73;84102;283;137049;-64
2023/08/03 07:55:25;;;;;;;2.10;1.40;;;;;;;24.94;91.79;99650.88;84198;282;24128;-65
2023/08/03 07:57:27;;;;;;;1.50;1.40;;;;;;;24.92;92.11;99657.30;84058;282;137272;-63
2023/08/03 07:59:29;;;;;;;1.10;1.10;;;;;;;24.92;92.93;99657.64;84190;282;25267;-60
2023/08/03 08:01:31;;;;;;;1.10;1.10;;;;;;;24.92;93.71;99658.90;84041;281;135999;-71
2023/08/03 08:03:39;;;;;;;1.40;1.30;;;;;;;24.93;93.92;99654.89;84274;281;25246;-71
2023/08/03 08:05:41;;;;;;;1.40;1.20;;;;;;;24.95;93.90;99653.33;84007;284;135868;-65
2023/08/03 08:07:44;;;;;;;1.30;1.20;;;;;;;24.95;94.62;99653.11;84305;284;22592;-73
2023/08/03 08:09:45;;;;;;;2.00;1.60;;;;;;;25.01;94.35;99655.13;84159;282;136091;-68
2023/08/03 08:11:48;;;;;;;2.60;1.80;;;;;;;24.98;94.30;99652.02;84153;282;24197;-63
2023/08/03 08:13:50;;;;;;;2.70;1.80;;;;;;;24.84;94.33;99650.09;84062;282;136128;-63
2023/08/03 08:15:59;;;;;;;2.00;1.80;;;;;;;24.68;95.31;99648.41;84070;284;23899;-77
2023/08/03 08:18:01;;;;;;;2.30;1.20;;;;;;;24.52;97.57;99653.63;84269;282;135678;-67
2023/08/03 08:20:03;;;;;;;2.50;2.00;;;;;;;24.40;97.43;99653.36;84234;282;23581;-69
2023/08/03 08:22:07;;;;;;;1.70;1.70;;;;;;;24.35;98.42;99654.92;84116;282;22639;-64
2023/08/03 08:24:17;;;;;;;1.90;1.80;;;;;;;24.35;96.78;99657.92;84126;282;136791;-68
2023/08/03 08:28:34;;;;;;;2.20;1.70;;;;;;;24.25;95.59;99664.88;82819;308;545003;-64
2023/08/03 08:30:42;;;;;;;1.20;1.20;;;;;;;24.21;95.70;99663.30;83522;296;25383;-68
2023/08/03 08:32:44;;;;;;;1.40;1.30;;;;;;;24.26;97.00;99662.30;83417;296;135578;-66
2023/08/03 08:34:46;;;;;;;1.80;1.70;;;;;;;24.36;95.88;99666.40;83410;285;22627;-71
2023/08/03 08:36:51;;;;;;;1.70;1.50;;;;;;;24.43;95.18;99670.27;83321;296;135252;-61
2023/08/03 08:38:53;;;;;;;2.40;2.10;;;;;;;24.46;95.15;99671.14;83456;296;25380;-63
2023/08/03 08:40:55;;;;;;;1.60;1.60;;;;;;;24.48;93.71;99669.25;83512;296;135607;-66
2023/08/03 08:42:57;;;;;;;1.80;1.40;;;;;;;24.45;94.57;99666.32;83348;290;429957;-64
2023/08/03 08:44:59;;;;;;;2.40;1.50;;;;;;;24.49;96.18;99668.38;83570;291;137014;-59
2023/08/03 08:47:01;;;;;;;1.70;1.60;;;;;;;24.58;95.48;99670.31;83690;291;24193;-66
2023/08/03 08:49:03;;;;;;;1.50;1.50;;;;;;;24.66;94.03;99671.34;84411;291;136459;-64
2023/08/03 08:51:10;;;;;;;1.70;1.60;;;;;;;24.71;93.59;99672.50;83657;292;22706;-64
2023/08/03 08:53:15;;;;;;;2.10;2.00;;;;;;;24.72;93.20;99670.59;83641;290;135845;-62
2023/08/03 08:55:25;;;;;;;2.40;1.80;;;;;;;24.72;93.91;99673.15;83625;292;22636;-67
2023/08/03 08:57:30;;;;;;;2.20;1.50;;;;;;;24.77;93.15;99672.84;83678;291;135798;-64
2023/08/03 08:59:34;;;;;;;1.60;1.50;;;;;;;24.80;91.84;99674.42;84151;287;23559;-63
2023/08/03 09:01:53;;;;;;;1.70;1.60;;;;;;;24.80;92.07;99674.86;83814;287;137153;-64
2023/08/03 09:03:56;;;;;;;1.80;1.60;;;;;;;24.82;92.60;99679.57;83997;287;22867;-61
2023/08/03 09:06:01;;;;;;;1.60;1.50;;;;;;;24.82;93.09;99677.70;83869;287;136446;-62
2023/08/03 09:08:18;;;;;;;1.70;1.60;;;;;;;24.83;92.77;99676.29;83836;287;136361;-68
2023/08/03 09:10:20;;;;;;;1.90;1.80;;;;;;;24.87;92.56;99680.99;83988;287;23760;-65
2023/08/03 09:12:26;;;;;;;2.50;1.60;;;;;;;24.91;92.12;99679.89;83856;287;136232;-67
2023/08/03 09:14:28;;;;;;;2.30;2.20;;;;;;;24.98;92.13;99681.30;84130;287;22883;-64
2023/08/03 09:16:31;;;;;;;2.30;2.10;;;;;;;25.06;91.96;99683.34;83767;288;138471;-67
2023/08/03 09:18:44;;;;;;;1.90;1.80;;;;;;;25.16;92.29;99685.60;83919;287;24120;-69
2023/08/03 09:20:46;;;;;;;2.10;2.00;;;;;;;25.22;91.18;99682.83;83795;287;135677;-67
2023/08/03 09:22:48;;;;;;;2.10;2.00;;;;;;;25.23;91.07;99681.77;83911;287;25262;-67
2023/08/03 09:25:00;;;;;;;2.70;1.80;;;;;;;25.29;90.78;99685.77;83848;288;135281;-64
2023/08/03 09:27:03;;;;;;;3.40;1.80;;;;;;;25.35;90.42;99686.25;84052;287;22564;-64
2023/08/03 09:29:12;;;;;;;1.80;1.80;;;;;;;25.39;89.34;99691.46;83841;288;135969;-72
2023/08/03 09:31:25;;;;;;;2.10;1.60;;;;;;;25.38;88.56;99689.20;83943;288;24119;-64
2023/08/03 09:33:32;;;;;;;2.10;1.80;;;;;;;25.36;87.77;99689.23;83848;287;135616;-67
2023/08/03 09:35:34;;;;;;;5.50;2.20;;;;;;;25.33;88.16;99687.55;83944;288;24133;-64
2023/08/03 09:37:40;;;;;;;1.90;1.80;;;;;;;25.35;88.45;99683.80;83940;287;136091;-72
2023/08/03 09:39:54;;;;;;;2.50;2.30;;;;;;;25.35;89.71;99682.65;84027;287;22574;-65